createdAt,value
2018-09-19T00:00:43.595Z,24.03
2018-09-19T00:03:11.970Z,24.08
2018-09-19T00:05:40.255Z,24.20
2018-09-19T00:08:09.032Z,24.24
2018-09-19T00:10:37.307Z,24.23
2018-09-19T00:13:05.605Z,24.24
2018-09-19T00:15:34.066Z,24.23
2018-09-19T00:18:02.352Z,24.20
2018-09-19T00:20:30.777Z,23.91
2018-09-19T00:22:59.134Z,23.98
2018-09-19T00:25:27.574Z,23.85
2018-09-19T00:27:56.022Z,23.78
2018-09-19T00:30:24.363Z,23.84
2018-09-19T00:32:52.674Z,23.72
2018-09-19T00:35:21.301Z,23.86
2018-09-19T00:37:49.716Z,23.77
2018-09-19T00:40:18.040Z,23.84
2018-09-19T00:42:46.350Z,23.88
2018-09-19T00:45:14.880Z,23.97
2018-09-19T00:47:43.217Z,23.69
2018-09-19T00:50:11.706Z,23.85
2018-09-19T00:52:40.070Z,23.88
2018-09-19T00:55:09.002Z,23.76
2018-09-19T00:57:37.562Z,23.93
2018-09-19T01:00:05.928Z,23.78
2018-09-19T01:02:34.224Z,23.83
2018-09-19T01:05:02.537Z,23.79
2018-09-19T01:07:30.828Z,23.80
2018-09-19T01:09:59.329Z,24.02
2018-09-19T01:12:27.736Z,24.00
2018-09-19T01:14:56.217Z,23.83
2018-09-19T01:17:24.687Z,24.09
2018-09-19T01:19:53.002Z,24.09
2018-09-19T01:22:21.350Z,24.15
2018-09-19T01:24:49.828Z,24.14
2018-09-19T01:27:18.224Z,24.16
2018-09-19T01:29:46.567Z,24.03
2018-09-19T01:32:15.019Z,23.99
2018-09-19T01:34:43.365Z,23.99
2018-09-19T01:37:11.742Z,23.83
2018-09-19T01:39:40.094Z,23.49
2018-09-19T01:42:08.511Z,23.61
2018-09-19T01:44:36.930Z,23.30
2018-09-19T01:47:05.295Z,22.89
2018-09-19T01:49:33.715Z,23.12
2018-09-19T01:52:02.078Z,23.45
2018-09-19T01:54:30.418Z,23.43
2018-09-19T01:56:58.742Z,23.35
2018-09-19T01:59:27.076Z,23.34
2018-09-19T02:01:55.383Z,23.35
2018-09-19T02:04:23.717Z,23.67
2018-09-19T02:06:52.614Z,23.67
2018-09-19T02:09:21.007Z,23.74
2018-09-19T02:11:49.531Z,23.72
2018-09-19T02:14:18.450Z,23.66
2018-09-19T02:16:46.774Z,23.57
2018-09-19T02:19:15.168Z,23.48
2018-09-19T02:21:43.409Z,23.39
2018-09-19T02:24:11.725Z,23.28
2018-09-19T02:26:40.075Z,23.38
2018-09-19T02:29:08.435Z,23.38
2018-09-19T02:31:36.772Z,23.34
2018-09-19T02:34:05.164Z,23.40
2018-09-19T02:36:33.554Z,23.19
2018-09-19T02:39:01.875Z,23.16
2018-09-19T02:41:30.173Z,23.25
2018-09-19T02:43:58.499Z,23.05
2018-09-19T02:46:26.859Z,23.15
2018-09-19T02:48:55.204Z,23.08
2018-09-19T02:51:23.691Z,22.99
2018-09-19T02:53:51.984Z,22.87
2018-09-19T02:56:20.438Z,22.95
2018-09-19T02:58:48.759Z,22.96
2018-09-19T03:01:17.167Z,22.89
2018-09-19T03:03:45.424Z,22.86
2018-09-19T03:06:13.775Z,22.85
2018-09-19T03:08:42.187Z,22.74
2018-09-19T03:11:10.521Z,22.55
2018-09-19T03:13:38.860Z,22.53
2018-09-19T03:16:07.241Z,22.59
2018-09-19T03:18:35.637Z,22.46
2018-09-19T03:21:03.983Z,22.44
2018-09-19T03:23:32.952Z,22.31
2018-09-19T03:26:01.330Z,22.37
2018-09-19T03:28:29.605Z,22.35
2018-09-19T03:30:57.884Z,22.50
2018-09-19T03:33:26.180Z,22.22
2018-09-19T03:35:54.487Z,22.37
2018-09-19T03:38:22.805Z,22.32
2018-09-19T03:40:51.115Z,22.28
2018-09-19T03:43:19.483Z,22.37
2018-09-19T03:45:47.945Z,22.35
2018-09-19T03:48:16.304Z,22.36
2018-09-19T03:50:44.606Z,22.23
2018-09-19T03:53:13.101Z,22.28
2018-09-19T03:55:41.393Z,22.09
2018-09-19T03:58:09.788Z,22.22
2018-09-19T04:00:39.118Z,22.16
2018-09-19T04:03:07.397Z,22.28
2018-09-19T04:05:35.829Z,22.34
2018-09-19T04:08:04.171Z,22.31
2018-09-19T04:10:32.493Z,22.31
2018-09-19T04:13:00.851Z,22.32
2018-09-19T04:15:29.334Z,22.37
2018-09-19T04:17:57.703Z,22.34
2018-09-19T04:20:26.123Z,22.36
2018-09-19T04:22:54.464Z,22.25
2018-09-19T04:25:22.741Z,22.22
2018-09-19T04:27:51.103Z,22.14
2018-09-19T04:30:19.453Z,22.17
2018-09-19T04:32:47.811Z,22.18
2018-09-19T04:35:16.173Z,22.18
2018-09-19T04:37:44.505Z,22.18
2018-09-19T04:40:12.950Z,22.14
2018-09-19T04:42:41.246Z,22.05
2018-09-19T04:45:09.726Z,21.98
2018-09-19T04:47:37.994Z,22.07
2018-09-19T04:50:06.465Z,22.11
2018-09-19T04:52:35.441Z,21.84
2018-09-19T04:55:04.867Z,21.69
2018-09-19T04:57:33.230Z,21.90
2018-09-19T05:00:02.145Z,21.81
2018-09-19T05:02:30.408Z,21.50
2018-09-19T05:04:58.683Z,21.59
2018-09-19T05:07:27.094Z,21.61
2018-09-19T05:09:55.705Z,21.83
2018-09-19T05:12:24.058Z,21.41
2018-09-19T05:14:52.437Z,21.59
2018-09-19T05:17:20.726Z,21.64
2018-09-19T05:19:49.168Z,21.57
2018-09-19T05:22:18.174Z,21.72
2018-09-19T05:24:46.609Z,21.69
2018-09-19T05:27:16.099Z,22.30
2018-09-19T05:29:44.717Z,23.11
2018-09-19T05:32:13.065Z,22.90
2018-09-19T05:34:41.388Z,22.66
2018-09-19T05:37:09.859Z,22.30
2018-09-19T05:39:38.227Z,22.11
2018-09-19T05:42:06.908Z,22.06
2018-09-19T05:44:35.347Z,21.74
2018-09-19T05:47:03.720Z,21.72
2018-09-19T05:49:32.071Z,21.63
2018-09-19T05:52:00.392Z,21.80
2018-09-19T05:54:28.691Z,21.75
2018-09-19T05:56:57.046Z,21.89
2018-09-19T05:59:25.341Z,21.85
2018-09-19T06:01:53.656Z,22.02
2018-09-19T06:04:21.983Z,22.07
2018-09-19T06:06:50.418Z,22.04
2018-09-19T06:09:18.771Z,22.28
2018-09-19T06:11:47.048Z,22.41
2018-09-19T06:14:15.376Z,22.58
2018-09-19T06:16:43.704Z,22.49
2018-09-19T06:19:11.984Z,22.84
2018-09-19T06:21:40.793Z,23.23
2018-09-19T06:24:09.200Z,23.41
2018-09-19T06:26:37.601Z,23.47
2018-09-19T06:29:06.252Z,23.66
2018-09-19T06:31:34.619Z,23.76
2018-09-19T06:34:02.931Z,23.97
2018-09-19T06:36:31.303Z,24.17
2018-09-19T06:38:59.731Z,23.96
2018-09-19T06:41:28.010Z,23.97
2018-09-19T06:43:56.313Z,24.13
2018-09-19T06:46:24.830Z,24.12
2018-09-19T06:48:53.132Z,24.24
2018-09-19T06:51:22.622Z,24.34
2018-09-19T06:53:50.999Z,24.48
2018-09-19T06:56:19.418Z,24.63
2018-09-19T06:58:47.765Z,24.83
2018-09-19T07:01:16.113Z,25.09
2018-09-19T07:03:44.434Z,24.96
2018-09-19T07:06:12.687Z,25.12
2018-09-19T07:08:40.970Z,25.61
2018-09-19T07:11:09.236Z,25.52
2018-09-19T07:13:37.682Z,25.62
2018-09-19T07:16:06.098Z,25.63
2018-09-19T07:18:34.524Z,25.62
2018-09-19T07:21:02.974Z,25.87
2018-09-19T07:23:31.315Z,26.23
2018-09-19T07:25:59.625Z,26.44
2018-09-19T07:28:27.987Z,26.28
2018-09-19T07:30:56.339Z,26.69
2018-09-19T07:33:24.620Z,26.65
2018-09-19T07:35:52.895Z,26.69
2018-09-19T07:38:21.218Z,27.07
2018-09-19T07:40:49.586Z,27.31
2018-09-19T07:43:18.010Z,27.17
2018-09-19T07:45:46.381Z,27.29
2018-09-19T07:48:14.696Z,26.89
2018-09-19T07:50:42.988Z,27.18
2018-09-19T07:53:11.288Z,27.59
2018-09-19T07:55:39.618Z,27.58
2018-09-19T07:58:07.917Z,27.77
2018-09-19T08:00:36.298Z,27.77
2018-09-19T08:03:04.552Z,27.49
2018-09-19T08:05:32.876Z,27.93
2018-09-19T08:08:01.539Z,28.16
2018-09-19T08:10:29.840Z,27.93
2018-09-19T08:12:58.134Z,28.28
2018-09-19T08:15:26.485Z,28.20
2018-09-19T08:17:54.770Z,28.23
2018-09-19T08:20:23.044Z,28.53
2018-09-19T08:22:51.423Z,28.75
2018-09-19T08:25:19.808Z,28.43
2018-09-19T08:27:48.107Z,28.97
2018-09-19T08:30:16.383Z,28.70
2018-09-19T08:32:44.680Z,29.07
2018-09-19T08:35:13.181Z,29.01
2018-09-19T08:37:41.602Z,29.24
2018-09-19T08:40:13.028Z,29.40
2018-09-19T08:42:41.287Z,29.54
2018-09-19T08:45:09.714Z,29.33
2018-09-19T08:47:37.970Z,29.33
2018-09-19T08:50:06.354Z,29.68
2018-09-19T08:52:34.755Z,29.90
2018-09-19T08:55:03.431Z,29.97
2018-09-19T08:57:31.750Z,29.74
2018-09-19T09:00:00.052Z,30.17
2018-09-19T09:02:28.371Z,30.15
2018-09-19T09:04:56.675Z,30.01
2018-09-19T09:07:24.960Z,30.26
2018-09-19T09:09:56.077Z,30.44
2018-09-19T09:12:24.532Z,30.39
2018-09-19T09:14:52.813Z,29.99
2018-09-19T09:17:21.160Z,30.40
2018-09-19T09:19:49.510Z,30.46
2018-09-19T09:22:17.888Z,30.75
2018-09-19T09:24:46.219Z,30.69
2018-09-19T09:27:14.590Z,30.98
2018-09-19T09:29:43.050Z,31.25
2018-09-19T09:32:11.415Z,31.26
2018-09-19T09:34:39.763Z,31.25
2018-09-19T09:37:08.122Z,31.45
2018-09-19T09:39:36.577Z,31.39
2018-09-19T09:42:04.882Z,31.86
2018-09-19T09:44:33.237Z,31.89
2018-09-19T09:47:01.524Z,31.89
2018-09-19T09:49:29.796Z,31.79
2018-09-19T09:51:58.135Z,31.71
2018-09-19T09:54:26.403Z,31.82
2018-09-19T09:56:54.722Z,31.63
2018-09-19T09:59:23.092Z,31.39
2018-09-19T10:01:51.383Z,31.91
2018-09-19T10:04:19.696Z,31.78
2018-09-19T10:06:48.012Z,32.20
2018-09-19T10:09:16.301Z,32.06
2018-09-19T10:11:44.590Z,32.21
2018-09-19T10:14:12.893Z,31.88
2018-09-19T10:16:41.363Z,32.28
2018-09-19T10:19:09.672Z,32.07
2018-09-19T10:21:37.997Z,32.48
2018-09-19T10:24:06.202Z,32.69
2018-09-19T10:26:34.473Z,32.91
2018-09-19T10:29:02.806Z,33.23
2018-09-19T10:31:31.119Z,33.38
2018-09-19T10:33:59.402Z,33.52
2018-09-19T10:36:27.733Z,33.58
2018-09-19T10:38:56.629Z,33.55
2018-09-19T10:41:24.928Z,33.34
2018-09-19T10:43:53.272Z,33.07
2018-09-19T10:46:21.497Z,33.14
2018-09-19T10:48:49.895Z,33.42
2018-09-19T10:51:18.210Z,33.94
2018-09-19T10:53:46.482Z,34.23
2018-09-19T10:56:14.768Z,34.40
2018-09-19T10:58:43.012Z,33.95
2018-09-19T11:01:11.526Z,33.92
2018-09-19T11:03:39.940Z,34.06
2018-09-19T11:06:08.331Z,34.19
2018-09-19T11:08:36.664Z,34.42
2018-09-19T11:11:05.073Z,34.52
2018-09-19T11:13:33.451Z,34.91
2018-09-19T11:16:01.715Z,34.06
2018-09-19T11:18:30.021Z,34.39
2018-09-19T11:20:58.308Z,34.34
2018-09-19T11:23:26.735Z,34.61
2018-09-19T11:25:55.023Z,33.65
2018-09-19T11:28:23.496Z,33.99
2018-09-19T11:30:51.831Z,34.11
2018-09-19T11:33:20.317Z,34.95
2018-09-19T11:35:48.678Z,35.07
2018-09-19T11:38:17.196Z,35.55
2018-09-19T11:40:45.606Z,35.96
2018-09-19T11:43:14.028Z,36.37
2018-09-19T11:45:42.381Z,36.83
2018-09-19T11:48:10.863Z,37.09
2018-09-19T11:50:39.214Z,37.46
2018-09-19T11:53:11.688Z,38.49
2018-09-19T11:55:40.192Z,38.95
2018-09-19T11:58:08.518Z,39.36
2018-09-19T12:00:36.906Z,40.29
2018-09-19T12:03:08.308Z,40.37
2018-09-19T12:05:36.531Z,41.29
2018-09-19T12:08:04.988Z,42.30
2018-09-19T12:10:33.643Z,43.53
2018-09-19T12:13:02.296Z,44.95
2018-09-19T12:15:30.562Z,44.15
2018-09-19T12:17:59.013Z,43.31
2018-09-19T12:20:27.321Z,42.89
2018-09-19T12:22:55.605Z,45.61
2018-09-19T12:25:23.943Z,45.66
2018-09-19T12:27:52.349Z,46.25
2018-09-19T12:30:20.666Z,46.61
2018-09-19T12:32:49.065Z,47.35
2018-09-19T12:35:17.353Z,48.82
2018-09-19T12:37:45.822Z,46.13
2018-09-19T12:40:14.196Z,46.93
2018-09-19T12:42:42.537Z,49.21
2018-09-19T12:45:10.844Z,49.59
2018-09-19T12:47:39.160Z,51.18
2018-09-19T12:50:07.409Z,51.20
2018-09-19T12:52:35.995Z,50.79
2018-09-19T12:55:04.291Z,49.65
2018-09-19T12:57:32.619Z,49.27
2018-09-19T13:00:01.378Z,49.66
2018-09-19T13:02:29.724Z,50.97
2018-09-19T13:04:57.978Z,51.00
2018-09-19T13:07:26.243Z,51.77
2018-09-19T13:09:54.550Z,50.61
2018-09-19T13:12:22.943Z,49.57
2018-09-19T13:14:51.283Z,51.05
2018-09-19T13:17:19.564Z,50.74
2018-09-19T13:19:47.839Z,50.50
2018-09-19T13:22:16.048Z,49.75
2018-09-19T13:24:44.271Z,48.06
2018-09-19T13:27:12.702Z,47.05
2018-09-19T13:29:41.033Z,48.25
2018-09-19T13:32:09.300Z,46.06
2018-09-19T13:34:37.532Z,48.05
2018-09-19T13:37:05.873Z,49.03
2018-09-19T13:39:34.164Z,50.02
2018-09-19T13:42:02.421Z,51.28
2018-09-19T13:44:30.698Z,52.37
2018-09-19T13:46:58.976Z,51.43
2018-09-19T13:49:31.692Z,51.36
2018-09-19T13:52:00.054Z,49.91
2018-09-19T13:54:28.331Z,49.50
2018-09-19T13:56:56.628Z,46.98
2018-09-19T13:59:24.941Z,45.40
2018-09-19T14:01:53.274Z,45.61
2018-09-19T14:04:21.709Z,44.82
2018-09-19T14:06:49.913Z,43.96
2018-09-19T14:09:18.184Z,42.94
2018-09-19T14:11:46.510Z,42.11
2018-09-19T14:14:14.782Z,41.50
2018-09-19T14:16:43.163Z,41.29
2018-09-19T14:19:12.534Z,42.95
2018-09-19T14:21:40.769Z,44.68
2018-09-19T14:24:09.013Z,46.92
2018-09-19T14:26:37.346Z,48.77
2018-09-19T14:29:06.547Z,50.58
2018-09-19T14:31:34.811Z,51.05
2018-09-19T14:34:03.185Z,51.48
2018-09-19T14:36:31.598Z,50.88
2018-09-19T14:38:59.916Z,50.18
2018-09-19T14:41:28.266Z,48.93
2018-09-19T14:43:56.586Z,48.57
2018-09-19T14:46:24.883Z,46.68
2018-09-19T14:48:53.356Z,47.49
2018-09-19T14:51:21.631Z,47.78
2018-09-19T14:53:49.930Z,46.60
2018-09-19T14:56:18.259Z,45.74
2018-09-19T14:58:46.747Z,46.05
2018-09-19T15:01:15.056Z,46.64
2018-09-19T15:03:43.398Z,49.35
2018-09-19T15:06:11.691Z,50.85
2018-09-19T15:08:40.100Z,51.15
2018-09-19T15:11:08.581Z,50.68
2018-09-19T15:13:37.032Z,50.56
2018-09-19T15:16:05.280Z,48.05
2018-09-19T15:18:33.795Z,45.66
2018-09-19T15:21:02.060Z,45.73
2018-09-19T15:23:30.353Z,42.86
2018-09-19T15:25:58.811Z,41.52
2018-09-19T15:28:27.113Z,40.61
2018-09-19T15:30:55.331Z,38.43
2018-09-19T15:33:23.570Z,37.64
2018-09-19T15:35:52.043Z,38.87
2018-09-19T15:38:20.503Z,40.61
2018-09-19T15:40:48.760Z,41.09
2018-09-19T15:43:17.020Z,41.58
2018-09-19T15:45:45.610Z,43.20
2018-09-19T15:48:14.886Z,43.08
2018-09-19T15:50:43.227Z,43.89
2018-09-19T15:53:11.600Z,44.68
2018-09-19T15:55:39.974Z,44.70
2018-09-19T15:58:08.218Z,43.63
2018-09-19T16:00:36.569Z,43.01
2018-09-19T16:03:04.910Z,44.48
2018-09-19T16:05:33.381Z,45.03
2018-09-19T16:08:01.661Z,45.72
2018-09-19T16:10:30.033Z,44.87
2018-09-19T16:12:58.369Z,44.29
2018-09-19T16:15:26.710Z,43.43
2018-09-19T16:17:55.051Z,42.86
2018-09-19T16:20:23.366Z,42.24
2018-09-19T16:22:51.707Z,41.12
2018-09-19T16:25:20.116Z,41.55
2018-09-19T16:27:48.428Z,41.30
2018-09-19T16:30:16.835Z,40.65
2018-09-19T16:32:45.157Z,39.50
2018-09-19T16:35:13.636Z,39.14
2018-09-19T16:37:41.881Z,38.29
2018-09-19T16:40:10.145Z,38.39
2018-09-19T16:42:38.484Z,38.22
2018-09-19T16:45:06.908Z,37.47
2018-09-19T16:47:35.379Z,37.31
2018-09-19T16:50:03.732Z,36.92
2018-09-19T16:52:32.228Z,36.63
2018-09-19T16:55:00.604Z,36.25
2018-09-19T16:57:29.970Z,36.18
2018-09-19T16:59:58.570Z,35.73
2018-09-19T17:02:26.903Z,35.69
2018-09-19T17:04:55.198Z,35.47
2018-09-19T17:07:23.572Z,35.36
2018-09-19T17:09:52.570Z,35.01
2018-09-19T17:12:21.083Z,34.83
2018-09-19T17:14:49.400Z,34.74
2018-09-19T17:17:17.847Z,34.49
2018-09-19T17:19:46.430Z,34.32
2018-09-19T17:22:14.751Z,33.95
2018-09-19T17:24:43.012Z,33.72
2018-09-19T17:27:11.726Z,33.58
2018-09-19T17:29:40.050Z,33.28
2018-09-19T17:32:08.679Z,33.06
2018-09-19T17:34:37.216Z,32.95
2018-09-19T17:37:06.591Z,32.82
2018-09-19T17:39:34.910Z,32.67
2018-09-19T17:42:03.264Z,32.41
2018-09-19T17:44:31.625Z,32.34
2018-09-19T17:46:59.945Z,32.17
2018-09-19T17:49:28.266Z,32.11
2018-09-19T17:51:56.751Z,31.90
2018-09-19T17:54:25.233Z,31.83
2018-09-19T17:56:53.531Z,31.80
2018-09-19T17:59:21.921Z,31.58
2018-09-19T18:01:51.364Z,31.51
2018-09-19T18:04:19.891Z,31.43
2018-09-19T18:06:48.376Z,31.32
2018-09-19T18:09:16.915Z,31.26
2018-09-19T18:11:45.217Z,31.21
2018-09-19T18:14:13.632Z,31.17
2018-09-19T18:16:41.965Z,30.88
2018-09-19T18:19:10.256Z,31.06
2018-09-19T18:21:38.623Z,30.76
2018-09-19T18:24:06.927Z,30.58
2018-09-19T18:26:36.204Z,30.66
2018-09-19T18:29:04.636Z,30.60
2018-09-19T18:31:33.028Z,30.66
2018-09-19T18:34:01.409Z,30.63
2018-09-19T18:36:29.844Z,30.43
2018-09-19T18:38:58.223Z,30.11
2018-09-19T18:41:26.577Z,30.19
2018-09-19T18:43:54.805Z,30.15
2018-09-19T18:46:23.100Z,30.02
2018-09-19T18:48:51.568Z,29.92
2018-09-19T18:51:19.860Z,29.81
2018-09-19T18:53:48.212Z,29.91
2018-09-19T18:56:16.536Z,29.82
2018-09-19T18:58:44.912Z,29.74
2018-09-19T19:01:13.311Z,29.66
2018-09-19T19:03:41.598Z,29.68
2018-09-19T19:06:10.081Z,29.55
2018-09-19T19:08:38.399Z,29.52
2018-09-19T19:11:07.033Z,29.53
2018-09-19T19:13:35.489Z,29.38
2018-09-19T19:16:03.743Z,29.39
2018-09-19T19:18:32.089Z,29.82
2018-09-19T19:21:00.478Z,29.68
2018-09-19T19:23:28.929Z,29.40
2018-09-19T19:25:57.746Z,29.16
2018-09-19T19:28:27.046Z,29.19
2018-09-19T19:30:55.733Z,29.05
2018-09-19T19:33:24.159Z,28.86
2018-09-19T19:35:52.586Z,28.94
2018-09-19T19:38:21.036Z,28.73
2018-09-19T19:40:49.887Z,28.66
2018-09-19T19:43:18.953Z,28.48
2018-09-19T19:45:48.092Z,28.45
2018-09-19T19:48:16.531Z,28.30
2018-09-19T19:50:44.959Z,28.06
2018-09-19T19:53:13.542Z,28.02
2018-09-19T19:55:41.919Z,27.84
2018-09-19T19:58:10.522Z,27.81
2018-09-19T20:00:38.910Z,27.77
2018-09-19T20:03:07.237Z,27.65
2018-09-19T20:05:36.127Z,27.53
2018-09-19T20:08:04.468Z,27.56
2018-09-19T20:10:32.962Z,27.32
2018-09-19T20:13:01.358Z,27.36
2018-09-19T20:15:29.665Z,27.35
2018-09-19T20:17:58.085Z,27.46
2018-09-19T20:20:26.578Z,27.25
2018-09-19T20:22:54.969Z,26.92
2018-09-19T20:25:23.300Z,27.16
2018-09-19T20:27:51.715Z,27.16
2018-09-19T20:30:20.130Z,27.08
2018-09-19T20:32:48.527Z,27.07
2018-09-19T20:35:16.830Z,26.99
2018-09-19T20:37:45.118Z,26.88
2018-09-19T20:40:13.495Z,26.82
2018-09-19T20:42:41.899Z,26.69
2018-09-19T20:45:10.140Z,26.71
2018-09-19T20:47:38.577Z,26.65
2018-09-19T20:50:07.204Z,26.57
2018-09-19T20:52:35.609Z,26.63
2018-09-19T20:55:03.900Z,26.74
2018-09-19T20:57:32.221Z,26.52
2018-09-19T21:00:00.645Z,26.31
2018-09-19T21:02:29.153Z,26.49
2018-09-19T21:04:57.544Z,26.58
2018-09-19T21:07:27.025Z,27.26
2018-09-19T21:09:55.364Z,27.16
2018-09-19T21:12:23.956Z,26.85
2018-09-19T21:14:52.267Z,26.81
2018-09-19T21:17:20.548Z,26.72
2018-09-19T21:19:48.820Z,26.63
2018-09-19T21:22:17.378Z,26.49
2018-09-19T21:24:45.607Z,26.54
2018-09-19T21:27:14.038Z,26.56
2018-09-19T21:29:42.299Z,26.50
2018-09-19T21:32:11.136Z,26.29
2018-09-19T21:34:39.466Z,26.38
2018-09-19T21:37:08.263Z,26.64
2018-09-19T21:39:36.750Z,26.50
2018-09-19T21:42:05.295Z,26.27
2018-09-19T21:44:33.787Z,26.36
2018-09-19T21:47:02.157Z,26.20
2018-09-19T21:49:30.553Z,26.15
2018-09-19T21:51:58.865Z,26.06
2018-09-19T21:54:27.336Z,25.93
2018-09-19T21:56:55.721Z,25.90
2018-09-19T21:59:23.955Z,25.85
2018-09-19T22:01:59.478Z,25.61
2018-09-19T22:04:27.934Z,25.47
2018-09-19T22:06:56.233Z,25.51
2018-09-19T22:09:24.492Z,25.53
2018-09-19T22:11:53.010Z,25.47
2018-09-19T22:14:21.778Z,25.40
2018-09-19T22:16:51.208Z,25.45
2018-09-19T22:19:19.746Z,25.37
2018-09-19T22:21:48.902Z,25.33
2018-09-19T22:24:17.178Z,25.35
2018-09-19T22:26:45.414Z,25.11
2018-09-19T22:29:13.764Z,24.94
2018-09-19T22:31:42.065Z,25.15
2018-09-19T22:34:10.633Z,25.28
2018-09-19T22:36:45.837Z,25.18
2018-09-19T22:39:16.547Z,25.14
2018-09-19T22:41:45.305Z,25.06
2018-09-19T22:44:13.892Z,24.97
2018-09-19T22:46:42.204Z,25.02
2018-09-19T22:49:10.492Z,24.81
2018-09-19T22:51:38.805Z,24.90
2018-09-19T22:54:07.192Z,25.04
2018-09-19T22:56:35.480Z,24.90
2018-09-19T22:59:03.827Z,24.82
2018-09-19T23:01:32.250Z,24.99
2018-09-19T23:04:00.566Z,24.89
2018-09-19T23:06:28.916Z,25.16
2018-09-19T23:08:57.259Z,24.79
2018-09-19T23:11:26.559Z,24.58
2018-09-19T23:13:54.867Z,24.86
2018-09-19T23:16:23.123Z,24.48
2018-09-19T23:18:51.433Z,24.72
2018-09-19T23:21:19.903Z,24.50
2018-09-19T23:23:48.178Z,24.30
2018-09-19T23:26:16.467Z,24.44
2018-09-19T23:28:44.804Z,24.25
2018-09-19T23:31:13.139Z,24.17
2018-09-19T23:33:41.471Z,24.31
2018-09-19T23:36:09.751Z,24.41
2018-09-19T23:38:38.141Z,24.42
2018-09-19T23:41:06.583Z,24.27
2018-09-19T23:43:35.016Z,24.37
2018-09-19T23:46:03.297Z,24.56
2018-09-19T23:48:31.789Z,24.41
2018-09-19T23:51:00.193Z,24.33
2018-09-19T23:53:28.620Z,24.10
2018-09-19T23:55:57.039Z,24.25
2018-09-19T23:58:25.542Z,24.25
